sensor_id;sensor_type;location;lat;lon;timestamp;temperature;humidity
31991;DHT22;18508;49.386;8.370;2022-11-20T00:00:26;3.40;99.90
31991;DHT22;18508;49.386;8.370;2022-11-20T00:02:54;3.40;99.90
31991;DHT22;18508;49.386;8.370;2022-11-20T00:05:23;3.40;99.90
31991;DHT22;18508;49.386;8.370;2022-11-20T00:07:52;3.40;99.90
31991;DHT22;18508;49.386;8.370;2022-11-20T00:10:20;3.40;99.90
31991;DHT22;18508;49.386;8.370;2022-11-20T00:12:50;3.50;99.90
31991;DHT22;18508;49.386;8.370;2022-11-20T00:15:19;3.40;99.90
31991;DHT22;18508;49.386;8.370;2022-11-20T00:17:48;3.40;99.90
31991;DHT22;18508;49.386;8.370;2022-11-20T00:20:17;3.40;99.90
31991;DHT22;18508;49.386;8.370;2022-11-20T00:22:46;3.30;99.90
31991;DHT22;18508;49.386;8.370;2022-11-20T00:25:14;3.40;99.90
31991;DHT22;18508;49.386;8.370;2022-11-20T00:27:42;3.10;99.90
31991;DHT22;18508;49.386;8.370;2022-11-20T00:30:13;3.50;99.90
31991;DHT22;18508;49.386;8.370;2022-11-20T00:32:42;3.30;99.90
31991;DHT22;18508;49.386;8.370;2022-11-20T00:35:10;3.50;99.90
31991;DHT22;18508;49.386;8.370;2022-11-20T00:37:41;3.60;99.90
31991;DHT22;18508;49.386;8.370;2022-11-20T00:40:11;3.50;99.90
31991;DHT22;18508;49.386;8.370;2022-11-20T00:42:39;3.60;99.90
31991;DHT22;18508;49.386;8.370;2022-11-20T00:45:08;3.50;99.90
31991;DHT22;18508;49.386;8.370;2022-11-20T00:47:36;3.60;99.90
31991;DHT22;18508;49.386;8.370;2022-11-20T00:50:09;3.50;99.90
31991;DHT22;18508;49.386;8.370;2022-11-20T00:52:37;3.60;99.90
31991;DHT22;18508;49.386;8.370;2022-11-20T00:55:06;3.90;99.90
31991;DHT22;18508;49.386;8.370;2022-11-20T00:57:37;3.50;99.90
31991;DHT22;18508;49.386;8.370;2022-11-20T01:00:07;3.60;99.90
31991;DHT22;18508;49.386;8.370;2022-11-20T01:02:35;3.80;99.90
31991;DHT22;18508;49.386;8.370;2022-11-20T01:05:06;3.50;99.90
31991;DHT22;18508;49.386;8.370;2022-11-20T01:07:37;3.50;99.90
31991;DHT22;18508;49.386;8.370;2022-11-20T01:10:07;3.60;99.90
31991;DHT22;18508;49.386;8.370;2022-11-20T01:12:35;3.60;99.90
31991;DHT22;18508;49.386;8.370;2022-11-20T01:15:05;3.60;99.90
31991;DHT22;18508;49.386;8.370;2022-11-20T01:17:33;3.60;99.90
31991;DHT22;18508;49.386;8.370;2022-11-20T01:20:02;3.60;99.90
31991;DHT22;18508;49.386;8.370;2022-11-20T01:22:32;3.60;99.90
31991;DHT22;18508;49.386;8.370;2022-11-20T01:25:02;3.70;99.90
31991;DHT22;18508;49.386;8.370;2022-11-20T01:27:30;3.70;99.90
31991;DHT22;18508;49.386;8.370;2022-11-20T01:30:03;3.90;99.90
31991;DHT22;18508;49.386;8.370;2022-11-20T01:32:31;3.60;99.90
31991;DHT22;18508;49.386;8.370;2022-11-20T01:34:59;3.60;99.90
31991;DHT22;18508;49.386;8.370;2022-11-20T01:37:28;3.60;99.90
31991;DHT22;18508;49.386;8.370;2022-11-20T01:39:58;3.60;99.90
31991;DHT22;18508;49.386;8.370;2022-11-20T01:42:26;3.60;99.90
31991;DHT22;18508;49.386;8.370;2022-11-20T01:48:29;3.60;99.90
31991;DHT22;18508;49.386;8.370;2022-11-20T01:51:01;3.60;99.90
31991;DHT22;18508;49.386;8.370;2022-11-20T01:53:33;3.60;99.90
31991;DHT22;18508;49.386;8.370;2022-11-20T01:56:07;3.70;99.90
31991;DHT22;18508;49.386;8.370;2022-11-20T01:58:39;3.60;99.90
31991;DHT22;18508;49.386;8.370;2022-11-20T02:01:09;3.70;99.90
31991;DHT22;18508;49.386;8.370;2022-11-20T02:03:37;3.70;99.90
31991;DHT22;18508;49.386;8.370;2022-11-20T02:06:10;3.70;99.90
31991;DHT22;18508;49.386;8.370;2022-11-20T02:08:40;3.60;99.90
31991;DHT22;18508;49.386;8.370;2022-11-20T02:11:10;3.70;99.90
31991;DHT22;18508;49.386;8.370;2022-11-20T02:13:42;3.70;99.90
31991;DHT22;18508;49.386;8.370;2022-11-20T02:16:15;3.70;99.90
31991;DHT22;18508;49.386;8.370;2022-11-20T02:18:44;3.70;99.90
31991;DHT22;18508;49.386;8.370;2022-11-20T02:21:28;3.70;99.90
31991;DHT22;18508;49.386;8.370;2022-11-20T02:24:04;3.70;99.90
31991;DHT22;18508;49.386;8.370;2022-11-20T02:26:38;3.80;99.90
31991;DHT22;18508;49.386;8.370;2022-11-20T02:29:08;3.80;99.90
31991;DHT22;18508;49.386;8.370;2022-11-20T02:31:39;3.80;99.90
31991;DHT22;18508;49.386;8.370;2022-11-20T02:34:09;3.80;99.90
31991;DHT22;18508;49.386;8.370;2022-11-20T02:36:39;3.70;99.90
31991;DHT22;18508;49.386;8.370;2022-11-20T02:39:11;3.70;99.90
31991;DHT22;18508;49.386;8.370;2022-11-20T02:41:43;3.70;99.90
31991;DHT22;18508;49.386;8.370;2022-11-20T02:44:12;3.70;99.90
31991;DHT22;18508;49.386;8.370;2022-11-20T02:46:41;3.70;99.90
31991;DHT22;18508;49.386;8.370;2022-11-20T02:49:10;3.70;99.90
31991;DHT22;18508;49.386;8.370;2022-11-20T02:51:38;3.70;99.90
31991;DHT22;18508;49.386;8.370;2022-11-20T02:54:06;3.70;99.90
31991;DHT22;18508;49.386;8.370;2022-11-20T02:56:38;3.70;99.90
31991;DHT22;18508;49.386;8.370;2022-11-20T02:59:09;3.80;99.90
31991;DHT22;18508;49.386;8.370;2022-11-20T03:01:37;3.80;99.90
31991;DHT22;18508;49.386;8.370;2022-11-20T03:04:07;3.80;99.90
31991;DHT22;18508;49.386;8.370;2022-11-20T03:06:36;3.70;99.90
31991;DHT22;18508;49.386;8.370;2022-11-20T03:09:05;3.80;99.90
31991;DHT22;18508;49.386;8.370;2022-11-20T03:11:38;3.80;99.90
31991;DHT22;18508;49.386;8.370;2022-11-20T03:14:10;3.70;99.90
31991;DHT22;18508;49.386;8.370;2022-11-20T03:16:41;3.70;99.90
31991;DHT22;18508;49.386;8.370;2022-11-20T03:19:10;3.80;99.90
31991;DHT22;18508;49.386;8.370;2022-11-20T03:21:38;3.80;99.90
31991;DHT22;18508;49.386;8.370;2022-11-20T03:24:10;3.70;99.90
31991;DHT22;18508;49.386;8.370;2022-11-20T03:26:40;3.70;99.90
31991;DHT22;18508;49.386;8.370;2022-11-20T03:29:08;3.70;99.90
31991;DHT22;18508;49.386;8.370;2022-11-20T03:31:38;3.60;99.90
31991;DHT22;18508;49.386;8.370;2022-11-20T03:34:10;3.60;99.90
31991;DHT22;18508;49.386;8.370;2022-11-20T03:36:39;3.60;99.90
31991;DHT22;18508;49.386;8.370;2022-11-20T03:39:09;3.70;99.90
31991;DHT22;18508;49.386;8.370;2022-11-20T03:41:48;3.70;99.90
31991;DHT22;18508;49.386;8.370;2022-11-20T03:44:17;3.70;99.90
31991;DHT22;18508;49.386;8.370;2022-11-20T03:46:49;3.80;99.90
31991;DHT22;18508;49.386;8.370;2022-11-20T03:49:18;3.80;99.90
31991;DHT22;18508;49.386;8.370;2022-11-20T03:51:47;3.80;99.90
31991;DHT22;18508;49.386;8.370;2022-11-20T03:54:15;3.80;99.90
31991;DHT22;18508;49.386;8.370;2022-11-20T03:56:46;3.80;99.90
31991;DHT22;18508;49.386;8.370;2022-11-20T03:59:15;3.80;99.90
31991;DHT22;18508;49.386;8.370;2022-11-20T04:01:43;3.80;99.90
31991;DHT22;18508;49.386;8.370;2022-11-20T04:04:15;3.90;99.90
31991;DHT22;18508;49.386;8.370;2022-11-20T04:06:43;3.80;99.90
31991;DHT22;18508;49.386;8.370;2022-11-20T04:09:14;3.90;99.90
31991;DHT22;18508;49.386;8.370;2022-11-20T04:11:43;3.90;99.90
31991;DHT22;18508;49.386;8.370;2022-11-20T04:14:15;4.00;99.90
31991;DHT22;18508;49.386;8.370;2022-11-20T04:16:44;4.00;99.90
31991;DHT22;18508;49.386;8.370;2022-11-20T04:19:14;4.10;99.90
31991;DHT22;18508;49.386;8.370;2022-11-20T04:21:44;4.10;99.90
31991;DHT22;18508;49.386;8.370;2022-11-20T04:24:12;4.10;99.90
31991;DHT22;18508;49.386;8.370;2022-11-20T04:26:41;4.20;99.90
31991;DHT22;18508;49.386;8.370;2022-11-20T04:29:10;4.20;99.90
31991;DHT22;18508;49.386;8.370;2022-11-20T04:31:43;4.20;99.90
31991;DHT22;18508;49.386;8.370;2022-11-20T04:34:11;4.10;99.90
31991;DHT22;18508;49.386;8.370;2022-11-20T04:36:41;4.00;99.90
31991;DHT22;18508;49.386;8.370;2022-11-20T04:39:12;4.00;99.90
31991;DHT22;18508;49.386;8.370;2022-11-20T04:41:41;4.00;99.90
31991;DHT22;18508;49.386;8.370;2022-11-20T04:44:10;3.90;99.90
31991;DHT22;18508;49.386;8.370;2022-11-20T04:46:42;3.90;99.90
31991;DHT22;18508;49.386;8.370;2022-11-20T04:49:11;4.00;99.90
31991;DHT22;18508;49.386;8.370;2022-11-20T04:51:40;3.80;99.90
31991;DHT22;18508;49.386;8.370;2022-11-20T04:54:09;4.00;99.90
31991;DHT22;18508;49.386;8.370;2022-11-20T04:56:39;4.10;99.90
31991;DHT22;18508;49.386;8.370;2022-11-20T04:59:07;4.10;99.90
31991;DHT22;18508;49.386;8.370;2022-11-20T05:01:36;4.10;99.90
31991;DHT22;18508;49.386;8.370;2022-11-20T05:04:06;4.10;99.90
31991;DHT22;18508;49.386;8.370;2022-11-20T05:06:35;4.10;99.90
31991;DHT22;18508;49.386;8.370;2022-11-20T05:09:04;4.20;99.90
31991;DHT22;18508;49.386;8.370;2022-11-20T05:11:33;4.20;99.90
31991;DHT22;18508;49.386;8.370;2022-11-20T05:14:02;4.20;99.90
31991;DHT22;18508;49.386;8.370;2022-11-20T05:16:34;4.30;99.90
31991;DHT22;18508;49.386;8.370;2022-11-20T05:19:21;4.20;99.90
31991;DHT22;18508;49.386;8.370;2022-11-20T05:21:51;4.30;99.90
31991;DHT22;18508;49.386;8.370;2022-11-20T05:24:20;4.30;99.90
31991;DHT22;18508;49.386;8.370;2022-11-20T05:26:51;4.30;99.90
31991;DHT22;18508;49.386;8.370;2022-11-20T05:29:32;4.30;99.90
31991;DHT22;18508;49.386;8.370;2022-11-20T05:32:05;4.50;99.90
31991;DHT22;18508;49.386;8.370;2022-11-20T05:34:42;4.40;99.90
31991;DHT22;18508;49.386;8.370;2022-11-20T05:37:11;4.40;99.90
31991;DHT22;18508;49.386;8.370;2022-11-20T05:39:41;4.30;99.90
31991;DHT22;18508;49.386;8.370;2022-11-20T05:42:12;4.20;99.90
31991;DHT22;18508;49.386;8.370;2022-11-20T05:45:00;4.50;99.90
31991;DHT22;18508;49.386;8.370;2022-11-20T05:47:33;4.20;99.90
31991;DHT22;18508;49.386;8.370;2022-11-20T05:50:08;4.40;99.90
31991;DHT22;18508;49.386;8.370;2022-11-20T05:52:45;4.10;99.90
31991;DHT22;18508;49.386;8.370;2022-11-20T05:55:19;4.20;99.90
31991;DHT22;18508;49.386;8.370;2022-11-20T05:57:52;4.20;99.90
31991;DHT22;18508;49.386;8.370;2022-11-20T06:00:24;4.10;99.90
31991;DHT22;18508;49.386;8.370;2022-11-20T06:03:04;4.20;99.90
31991;DHT22;18508;49.386;8.370;2022-11-20T06:05:40;4.20;99.90
31991;DHT22;18508;49.386;8.370;2022-11-20T06:08:13;4.20;99.90
31991;DHT22;18508;49.386;8.370;2022-11-20T06:10:42;4.30;99.90
31991;DHT22;18508;49.386;8.370;2022-11-20T06:13:11;4.30;99.90
31991;DHT22;18508;49.386;8.370;2022-11-20T06:15:53;4.30;99.90
31991;DHT22;18508;49.386;8.370;2022-11-20T06:18:32;4.40;99.90
31991;DHT22;18508;49.386;8.370;2022-11-20T06:21:06;4.40;99.90
31991;DHT22;18508;49.386;8.370;2022-11-20T06:23:43;4.40;99.90
31991;DHT22;18508;49.386;8.370;2022-11-20T06:26:16;4.50;99.90
31991;DHT22;18508;49.386;8.370;2022-11-20T06:28:51;4.50;99.90
31991;DHT22;18508;49.386;8.370;2022-11-20T06:31:25;4.50;99.90
31991;DHT22;18508;49.386;8.370;2022-11-20T06:34:02;4.50;99.90
31991;DHT22;18508;49.386;8.370;2022-11-20T06:36:36;4.80;99.90
31991;DHT22;18508;49.386;8.370;2022-11-20T06:39:10;4.60;99.90
31991;DHT22;18508;49.386;8.370;2022-11-20T06:41:40;4.70;99.90
31991;DHT22;18508;49.386;8.370;2022-11-20T06:44:26;4.70;99.90
31991;DHT22;18508;49.386;8.370;2022-11-20T06:47:00;4.60;99.90
31991;DHT22;18508;49.386;8.370;2022-11-20T06:49:29;4.80;99.90
31991;DHT22;18508;49.386;8.370;2022-11-20T06:52:13;4.50;99.90
31991;DHT22;18508;49.386;8.370;2022-11-20T06:54:50;4.70;99.90
31991;DHT22;18508;49.386;8.370;2022-11-20T06:57:22;4.80;99.90
31991;DHT22;18508;49.386;8.370;2022-11-20T06:59:55;4.70;99.90
31991;DHT22;18508;49.386;8.370;2022-11-20T07:05:03;3.70;99.90
31991;DHT22;18508;49.386;8.370;2022-11-20T07:07:40;4.70;99.90
31991;DHT22;18508;49.386;8.370;2022-11-20T07:10:11;4.50;99.90
31991;DHT22;18508;49.386;8.370;2022-11-20T07:12:48;4.50;99.90
31991;DHT22;18508;49.386;8.370;2022-11-20T07:15:32;4.50;99.90
31991;DHT22;18508;49.386;8.370;2022-11-20T07:20:35;4.80;99.90
31991;DHT22;18508;49.386;8.370;2022-11-20T07:23:09;4.60;99.90
31991;DHT22;18508;49.386;8.370;2022-11-20T07:25:43;4.70;99.90
31991;DHT22;18508;49.386;8.370;2022-11-20T07:28:19;4.60;99.90
31991;DHT22;18508;49.386;8.370;2022-11-20T07:33:21;4.90;99.90
31991;DHT22;18508;49.386;8.370;2022-11-20T07:38:26;4.80;99.90
31991;DHT22;18508;49.386;8.370;2022-11-20T07:41:04;4.90;99.90
31991;DHT22;18508;49.386;8.370;2022-11-20T07:43:34;5.00;99.90
31991;DHT22;18508;49.386;8.370;2022-11-20T07:46:10;5.10;99.90
31991;DHT22;18508;49.386;8.370;2022-11-20T07:48:40;5.10;99.90
31991;DHT22;18508;49.386;8.370;2022-11-20T07:51:09;5.20;99.90
31991;DHT22;18508;49.386;8.370;2022-11-20T07:53:39;5.30;99.90
31991;DHT22;18508;49.386;8.370;2022-11-20T07:56:14;5.20;99.90
31991;DHT22;18508;49.386;8.370;2022-11-20T07:58:44;5.50;99.90
31991;DHT22;18508;49.386;8.370;2022-11-20T08:01:16;5.20;99.90
31991;DHT22;18508;49.386;8.370;2022-11-20T08:03:53;5.30;99.90
31991;DHT22;18508;49.386;8.370;2022-11-20T08:08:58;5.40;99.90
31991;DHT22;18508;49.386;8.370;2022-11-20T08:14:19;5.40;99.90
31991;DHT22;18508;49.386;8.370;2022-11-20T08:16:50;5.60;99.90
31991;DHT22;18508;49.386;8.370;2022-11-20T08:19:37;5.70;99.90
31991;DHT22;18508;49.386;8.370;2022-11-20T08:24:40;5.80;99.90
31991;DHT22;18508;49.386;8.370;2022-11-20T08:27:43;5.80;99.90
31991;DHT22;18508;49.386;8.370;2022-11-20T08:30:44;6.00;99.90
31991;DHT22;18508;49.386;8.370;2022-11-20T08:33:20;6.20;99.90
31991;DHT22;18508;49.386;8.370;2022-11-20T08:36:00;6.20;99.90
31991;DHT22;18508;49.386;8.370;2022-11-20T08:38:33;6.20;99.90
31991;DHT22;18508;49.386;8.370;2022-11-20T08:41:05;6.30;99.90
31991;DHT22;18508;49.386;8.370;2022-11-20T08:44:05;6.30;99.90
31991;DHT22;18508;49.386;8.370;2022-11-20T08:46:41;6.20;99.90
31991;DHT22;18508;49.386;8.370;2022-11-20T08:49:14;6.20;99.90
31991;DHT22;18508;49.386;8.370;2022-11-20T08:51:47;6.20;99.90
31991;DHT22;18508;49.386;8.370;2022-11-20T08:54:18;6.20;99.90
31991;DHT22;18508;49.386;8.370;2022-11-20T08:56:50;6.10;99.90
31991;DHT22;18508;49.386;8.370;2022-11-20T08:59:22;6.00;99.90
31991;DHT22;18508;49.386;8.370;2022-11-20T09:02:11;5.90;99.90
31991;DHT22;18508;49.386;8.370;2022-11-20T09:07:10;6.10;99.90
31991;DHT22;18508;49.386;8.370;2022-11-20T09:09:38;5.90;99.90
31991;DHT22;18508;49.386;8.370;2022-11-20T09:12:09;5.90;99.90
31991;DHT22;18508;49.386;8.370;2022-11-20T09:14:42;5.90;99.90
31991;DHT22;18508;49.386;8.370;2022-11-20T09:17:21;5.90;99.90
31991;DHT22;18508;49.386;8.370;2022-11-20T09:19:55;6.00;99.90
31991;DHT22;18508;49.386;8.370;2022-11-20T09:22:26;5.90;99.90
31991;DHT22;18508;49.386;8.370;2022-11-20T09:24:56;5.90;99.90
31991;DHT22;18508;49.386;8.370;2022-11-20T09:27:29;6.00;99.90
31991;DHT22;18508;49.386;8.370;2022-11-20T09:30:06;6.00;99.90
31991;DHT22;18508;49.386;8.370;2022-11-20T09:32:39;6.00;99.90
31991;DHT22;18508;49.386;8.370;2022-11-20T09:35:11;6.00;99.90
31991;DHT22;18508;49.386;8.370;2022-11-20T09:37:44;6.10;99.90
31991;DHT22;18508;49.386;8.370;2022-11-20T09:40:23;6.10;99.90
31991;DHT22;18508;49.386;8.370;2022-11-20T09:43:03;6.20;99.90
31991;DHT22;18508;49.386;8.370;2022-11-20T09:45:47;6.20;99.90
31991;DHT22;18508;49.386;8.370;2022-11-20T09:48:57;6.10;99.90
31991;DHT22;18508;49.386;8.370;2022-11-20T09:51:41;6.20;99.90
31991;DHT22;18508;49.386;8.370;2022-11-20T09:54:21;6.20;99.90
31991;DHT22;18508;49.386;8.370;2022-11-20T09:56:56;6.20;99.90
31991;DHT22;18508;49.386;8.370;2022-11-20T09:59:45;6.30;99.90
31991;DHT22;18508;49.386;8.370;2022-11-20T10:02:30;6.30;99.90
31991;DHT22;18508;49.386;8.370;2022-11-20T10:05:11;6.30;99.90
31991;DHT22;18508;49.386;8.370;2022-11-20T10:07:49;6.20;99.90
31991;DHT22;18508;49.386;8.370;2022-11-20T10:10:33;6.30;99.90
31991;DHT22;18508;49.386;8.370;2022-11-20T10:13:20;6.30;99.90
31991;DHT22;18508;49.386;8.370;2022-11-20T10:16:03;6.40;99.90
31991;DHT22;18508;49.386;8.370;2022-11-20T10:18:53;6.40;99.90
31991;DHT22;18508;49.386;8.370;2022-11-20T10:21:30;6.50;99.90
31991;DHT22;18508;49.386;8.370;2022-11-20T10:27:08;6.50;99.90
31991;DHT22;18508;49.386;8.370;2022-11-20T10:29:46;6.60;99.90
31991;DHT22;18508;49.386;8.370;2022-11-20T10:32:26;6.50;99.90
31991;DHT22;18508;49.386;8.370;2022-11-20T10:35:04;6.60;99.90
31991;DHT22;18508;49.386;8.370;2022-11-20T10:37:42;6.50;99.90
31991;DHT22;18508;49.386;8.370;2022-11-20T10:40:25;6.60;99.90
31991;DHT22;18508;49.386;8.370;2022-11-20T10:43:09;6.50;99.90
31991;DHT22;18508;49.386;8.370;2022-11-20T10:45:53;6.60;99.90
31991;DHT22;18508;49.386;8.370;2022-11-20T10:48:37;6.80;99.90
31991;DHT22;18508;49.386;8.370;2022-11-20T10:51:21;6.80;99.90
31991;DHT22;18508;49.386;8.370;2022-11-20T10:54:17;6.80;99.90
31991;DHT22;18508;49.386;8.370;2022-11-20T10:56:52;6.90;99.90
31991;DHT22;18508;49.386;8.370;2022-11-20T10:59:57;7.00;99.90
31991;DHT22;18508;49.386;8.370;2022-11-20T11:02:34;7.10;99.90
31991;DHT22;18508;49.386;8.370;2022-11-20T11:07:58;7.40;99.90
31991;DHT22;18508;49.386;8.370;2022-11-20T11:10:37;7.70;99.90
31991;DHT22;18508;49.386;8.370;2022-11-20T11:13:19;7.60;99.90
31991;DHT22;18508;49.386;8.370;2022-11-20T11:15:49;7.60;99.90
31991;DHT22;18508;49.386;8.370;2022-11-20T11:18:26;7.70;99.90
31991;DHT22;18508;49.386;8.370;2022-11-20T11:21:00;7.80;99.90
31991;DHT22;18508;49.386;8.370;2022-11-20T11:23:36;7.70;99.90
31991;DHT22;18508;49.386;8.370;2022-11-20T11:26:19;7.80;99.90
31991;DHT22;18508;49.386;8.370;2022-11-20T11:28:54;7.90;99.90
31991;DHT22;18508;49.386;8.370;2022-11-20T11:31:28;8.00;99.90
31991;DHT22;18508;49.386;8.370;2022-11-20T11:34:07;8.10;99.90
31991;DHT22;18508;49.386;8.370;2022-11-20T11:36:41;8.20;99.90
31991;DHT22;18508;49.386;8.370;2022-11-20T11:39:15;8.20;99.90
31991;DHT22;18508;49.386;8.370;2022-11-20T11:41:47;8.40;99.90
31991;DHT22;18508;49.386;8.370;2022-11-20T11:44:27;8.60;99.90
31991;DHT22;18508;49.386;8.370;2022-11-20T11:47:21;8.70;99.90
31991;DHT22;18508;49.386;8.370;2022-11-20T11:50:02;8.70;99.90
31991;DHT22;18508;49.386;8.370;2022-11-20T11:52:45;8.70;99.90
31991;DHT22;18508;49.386;8.370;2022-11-20T11:55:17;8.90;99.90
31991;DHT22;18508;49.386;8.370;2022-11-20T11:57:58;8.90;99.90
31991;DHT22;18508;49.386;8.370;2022-11-20T12:00:36;8.90;99.90
31991;DHT22;18508;49.386;8.370;2022-11-20T12:03:16;8.90;99.90
31991;DHT22;18508;49.386;8.370;2022-11-20T12:05:56;8.80;99.90
31991;DHT22;18508;49.386;8.370;2022-11-20T12:08:41;8.90;99.90
31991;DHT22;18508;49.386;8.370;2022-11-20T12:11:26;9.10;99.90
31991;DHT22;18508;49.386;8.370;2022-11-20T12:14:00;9.10;99.90
31991;DHT22;18508;49.386;8.370;2022-11-20T12:16:38;9.20;99.90
31991;DHT22;18508;49.386;8.370;2022-11-20T12:19:12;9.30;99.90
31991;DHT22;18508;49.386;8.370;2022-11-20T12:21:55;9.30;99.90
31991;DHT22;18508;49.386;8.370;2022-11-20T12:24:46;9.30;99.90
31991;DHT22;18508;49.386;8.370;2022-11-20T12:30:24;9.60;99.90
31991;DHT22;18508;49.386;8.370;2022-11-20T12:33:15;9.70;99.90
31991;DHT22;18508;49.386;8.370;2022-11-20T12:36:07;9.80;99.90
31991;DHT22;18508;49.386;8.370;2022-11-20T12:38:53;9.90;99.90
31991;DHT22;18508;49.386;8.370;2022-11-20T12:41:41;9.90;99.90
31991;DHT22;18508;49.386;8.370;2022-11-20T12:47:59;10.10;99.90
31991;DHT22;18508;49.386;8.370;2022-11-20T12:50:44;10.00;99.90
31991;DHT22;18508;49.386;8.370;2022-11-20T12:53:40;9.80;99.90
31991;DHT22;18508;49.386;8.370;2022-11-20T12:56:23;9.70;99.90
31991;DHT22;18508;49.386;8.370;2022-11-20T12:59:10;9.70;99.90
31991;DHT22;18508;49.386;8.370;2022-11-20T13:01:53;9.60;99.90
31991;DHT22;18508;49.386;8.370;2022-11-20T13:04:44;9.50;99.90
31991;DHT22;18508;49.386;8.370;2022-11-20T13:07:20;9.50;99.90
31991;DHT22;18508;49.386;8.370;2022-11-20T13:09:55;9.40;99.90
31991;DHT22;18508;49.386;8.370;2022-11-20T13:12:29;9.40;99.90
31991;DHT22;18508;49.386;8.370;2022-11-20T13:15:14;9.30;99.90
31991;DHT22;18508;49.386;8.370;2022-11-20T13:17:48;9.30;99.90
31991;DHT22;18508;49.386;8.370;2022-11-20T13:20:20;9.20;99.90
31991;DHT22;18508;49.386;8.370;2022-11-20T13:22:51;9.30;99.90
31991;DHT22;18508;49.386;8.370;2022-11-20T13:25:25;9.30;99.90
31991;DHT22;18508;49.386;8.370;2022-11-20T13:28:00;9.20;99.90
31991;DHT22;18508;49.386;8.370;2022-11-20T13:30:36;9.20;99.90
31991;DHT22;18508;49.386;8.370;2022-11-20T13:33:08;9.10;99.90
31991;DHT22;18508;49.386;8.370;2022-11-20T13:35:42;9.10;99.90
31991;DHT22;18508;49.386;8.370;2022-11-20T13:38:15;9.10;99.90
31991;DHT22;18508;49.386;8.370;2022-11-20T13:40:54;9.20;99.90
31991;DHT22;18508;49.386;8.370;2022-11-20T13:43:35;9.00;99.90
31991;DHT22;18508;49.386;8.370;2022-11-20T13:46:09;9.10;99.90
31991;DHT22;18508;49.386;8.370;2022-11-20T13:48:42;9.10;99.90
31991;DHT22;18508;49.386;8.370;2022-11-20T13:51:27;9.10;99.90
31991;DHT22;18508;49.386;8.370;2022-11-20T13:54:21;9.00;99.90
31991;DHT22;18508;49.386;8.370;2022-11-20T13:57:06;9.00;99.90
31991;DHT22;18508;49.386;8.370;2022-11-20T13:59:57;9.50;99.90
31991;DHT22;18508;49.386;8.370;2022-11-20T14:02:30;8.90;99.90
31991;DHT22;18508;49.386;8.370;2022-11-20T14:05:04;8.90;99.90
31991;DHT22;18508;49.386;8.370;2022-11-20T14:07:37;8.80;99.90
31991;DHT22;18508;49.386;8.370;2022-11-20T14:10:23;8.70;99.90
31991;DHT22;18508;49.386;8.370;2022-11-20T14:12:58;8.50;99.90
31991;DHT22;18508;49.386;8.370;2022-11-20T14:15:30;8.10;99.90
31991;DHT22;18508;49.386;8.370;2022-11-20T14:18:12;8.60;99.90
31991;DHT22;18508;49.386;8.370;2022-11-20T14:20:44;8.50;99.90
31991;DHT22;18508;49.386;8.370;2022-11-20T14:23:24;8.40;99.90
31991;DHT22;18508;49.386;8.370;2022-11-20T14:25:58;10.50;99.90
31991;DHT22;18508;49.386;8.370;2022-11-20T14:28:30;8.40;99.90
31991;DHT22;18508;49.386;8.370;2022-11-20T14:31:22;8.40;99.90
31991;DHT22;18508;49.386;8.370;2022-11-20T14:34:04;8.30;99.90
31991;DHT22;18508;49.386;8.370;2022-11-20T14:36:38;8.30;99.90
31991;DHT22;18508;49.386;8.370;2022-11-20T14:39:21;8.30;99.90
31991;DHT22;18508;49.386;8.370;2022-11-20T14:41:53;8.20;99.90
31991;DHT22;18508;49.386;8.370;2022-11-20T14:44:32;8.20;99.90
31991;DHT22;18508;49.386;8.370;2022-11-20T14:47:23;8.20;99.90
31991;DHT22;18508;49.386;8.370;2022-11-20T14:50:23;8.10;99.90
31991;DHT22;18508;49.386;8.370;2022-11-20T14:52:57;8.20;99.90
31991;DHT22;18508;49.386;8.370;2022-11-20T14:58:27;8.10;99.90
31991;DHT22;18508;49.386;8.370;2022-11-20T15:01:05;8.00;99.90
31991;DHT22;18508;49.386;8.370;2022-11-20T15:06:26;8.10;99.90
31991;DHT22;18508;49.386;8.370;2022-11-20T15:09:13;9.30;99.90
31991;DHT22;18508;49.386;8.370;2022-11-20T15:11:53;8.00;99.90
31991;DHT22;18508;49.386;8.370;2022-11-20T15:14:26;8.00;99.90
31991;DHT22;18508;49.386;8.370;2022-11-20T15:16:58;8.00;99.90
31991;DHT22;18508;49.386;8.370;2022-11-20T15:22:27;7.90;99.90
31991;DHT22;18508;49.386;8.370;2022-11-20T15:25:32;7.80;99.90
31991;DHT22;18508;49.386;8.370;2022-11-20T15:28:32;7.90;99.90
31991;DHT22;18508;49.386;8.370;2022-11-20T15:31:19;7.10;99.90
31991;DHT22;18508;49.386;8.370;2022-11-20T15:33:50;7.90;99.90
31991;DHT22;18508;49.386;8.370;2022-11-20T15:36:33;7.90;99.90
31991;DHT22;18508;49.386;8.370;2022-11-20T15:39:16;7.80;99.90
31991;DHT22;18508;49.386;8.370;2022-11-20T15:41:57;7.80;99.90
31991;DHT22;18508;49.386;8.370;2022-11-20T15:44:45;7.80;99.90
31991;DHT22;18508;49.386;8.370;2022-11-20T15:50:12;7.80;99.90
31991;DHT22;18508;49.386;8.370;2022-11-20T15:53:07;7.80;99.90
31991;DHT22;18508;49.386;8.370;2022-11-20T15:56:05;7.70;99.90
31991;DHT22;18508;49.386;8.370;2022-11-20T15:58:53;7.70;99.90
31991;DHT22;18508;49.386;8.370;2022-11-20T16:01:32;7.70;99.90
31991;DHT22;18508;49.386;8.370;2022-11-20T16:04:11;7.60;99.90
31991;DHT22;18508;49.386;8.370;2022-11-20T16:09:31;7.70;99.90
31991;DHT22;18508;49.386;8.370;2022-11-20T16:12:17;7.60;99.90
31991;DHT22;18508;49.386;8.370;2022-11-20T16:15:12;7.70;99.90
31991;DHT22;18508;49.386;8.370;2022-11-20T16:20:36;7.70;99.90
31991;DHT22;18508;49.386;8.370;2022-11-20T16:23:19;7.70;99.90
31991;DHT22;18508;49.386;8.370;2022-11-20T16:26:09;9.00;99.90
31991;DHT22;18508;49.386;8.370;2022-11-20T16:28:46;7.80;99.90
31991;DHT22;18508;49.386;8.370;2022-11-20T16:31:22;7.80;99.90
31991;DHT22;18508;49.386;8.370;2022-11-20T16:34:03;7.80;99.90
31991;DHT22;18508;49.386;8.370;2022-11-20T16:36:43;7.90;99.90
31991;DHT22;18508;49.386;8.370;2022-11-20T16:44:30;7.90;99.90
31991;DHT22;18508;49.386;8.370;2022-11-20T16:49:42;7.90;99.90
31991;DHT22;18508;49.386;8.370;2022-11-20T16:52:19;8.00;99.90
31991;DHT22;18508;49.386;8.370;2022-11-20T16:57:29;8.00;99.90
31991;DHT22;18508;49.386;8.370;2022-11-20T17:00:07;8.00;99.90
31991;DHT22;18508;49.386;8.370;2022-11-20T17:02:40;8.00;99.90
31991;DHT22;18508;49.386;8.370;2022-11-20T17:05:13;7.90;99.90
31991;DHT22;18508;49.386;8.370;2022-11-20T17:07:46;7.90;99.90
31991;DHT22;18508;49.386;8.370;2022-11-20T17:12:53;7.90;99.90
31991;DHT22;18508;49.386;8.370;2022-11-20T17:15:48;7.90;99.90
31991;DHT22;18508;49.386;8.370;2022-11-20T17:20:54;7.80;99.90
31991;DHT22;18508;49.386;8.370;2022-11-20T17:23:38;7.80;99.90
31991;DHT22;18508;49.386;8.370;2022-11-20T17:26:15;7.80;99.90
31991;DHT22;18508;49.386;8.370;2022-11-20T17:29:11;7.80;99.90
31991;DHT22;18508;49.386;8.370;2022-11-20T17:31:48;7.80;99.90
31991;DHT22;18508;49.386;8.370;2022-11-20T17:34:20;6.30;99.90
31991;DHT22;18508;49.386;8.370;2022-11-20T17:36:57;7.80;99.90
31991;DHT22;18508;49.386;8.370;2022-11-20T17:39:46;7.80;99.90
31991;DHT22;18508;49.386;8.370;2022-11-20T17:45:06;7.80;99.90
31991;DHT22;18508;49.386;8.370;2022-11-20T17:47:44;7.80;99.90
31991;DHT22;18508;49.386;8.370;2022-11-20T17:50:16;7.80;99.90